createdAt,value
2023-05-21T05:31:33.170Z,9.2971
2023-05-21T05:32:35.139Z,9.2877
2023-05-21T05:33:37.118Z,10.9242
2023-05-21T05:34:39.171Z,10.3323
2023-05-21T05:35:41.235Z,10.4209
2023-05-21T05:36:43.274Z,10.3130
2023-05-21T05:37:45.313Z,9.8034
2023-05-21T05:38:47.380Z,9.5056
2023-05-21T05:39:49.383Z,9.8537
2023-05-21T05:40:51.430Z,8.7868
2023-05-21T05:41:53.511Z,9.6711
2023-05-21T05:42:55.553Z,9.1727
2023-05-21T05:43:57.588Z,8.7411
2023-05-21T05:44:59.632Z,8.6274
2023-05-21T05:46:01.703Z,9.6924
2023-05-21T05:47:03.709Z,9.4538
2023-05-21T05:48:05.766Z,9.1523
2023-05-21T05:49:07.806Z,10.6034
2023-05-21T05:50:09.867Z,8.4494
2023-05-21T05:51:11.920Z,9.3899
2023-05-21T05:52:13.939Z,9.9402
2023-05-21T05:53:15.976Z,9.8419
2023-05-21T05:54:18.022Z,8.6930
2023-05-21T05:55:20.098Z,10.5163
2023-05-21T05:56:22.138Z,9.0894
2023-05-21T05:57:24.155Z,10.6302
2023-05-21T05:58:26.231Z,8.7824
2023-05-21T05:59:28.288Z,9.9864
2023-05-21T06:00:30.350Z,9.6008
2023-05-21T06:01:32.370Z,9.5196
2023-05-21T06:02:34.467Z,9.9803
2023-05-21T06:03:36.679Z,9.5009
2023-05-21T06:04:38.489Z,9.0113
2023-05-21T06:05:40.780Z,9.8287
2023-05-21T06:06:42.591Z,11.0856
2023-05-21T06:07:44.608Z,9.1379
2023-05-21T06:08:46.666Z,8.9754
2023-05-21T06:09:48.715Z,8.7105
2023-05-21T06:10:50.753Z,8.6794
2023-05-21T06:11:52.793Z,9.0686
2023-05-21T06:12:54.851Z,9.4449
2023-05-21T06:13:56.884Z,10.6054
2023-05-21T06:14:58.928Z,8.1923
2023-05-21T06:16:01.043Z,8.0087
2023-05-21T06:17:03.036Z,8.5882
2023-05-21T06:18:05.071Z,8.1269
2023-05-21T06:19:07.128Z,9.0195
2023-05-21T06:20:09.129Z,7.4454
2023-05-21T06:21:11.199Z,8.8950
2023-05-21T06:22:13.262Z,8.5802
2023-05-21T06:23:15.285Z,9.5186
2023-05-21T06:24:17.312Z,9.8943
2023-05-21T06:25:19.375Z,8.7393
2023-05-21T06:26:21.414Z,9.2589
2023-05-21T06:27:23.455Z,9.4320
2023-05-21T06:28:25.490Z,9.0904
2023-05-21T06:29:27.586Z,8.3305
2023-05-21T06:30:29.608Z,9.0756
2023-05-21T06:31:31.630Z,10.2658
2023-05-21T06:32:33.821Z,9.2068
2023-05-21T06:33:35.844Z,9.8675
2023-05-21T06:34:37.793Z,9.4087
2023-05-21T06:35:39.820Z,9.0073
2023-05-21T06:36:41.884Z,8.7251
2023-05-21T06:37:43.939Z,9.5299
2023-05-21T06:38:45.970Z,9.0509
2023-05-21T06:39:48.035Z,9.3809
2023-05-21T06:40:50.049Z,8.8539
2023-05-21T06:41:52.084Z,8.8409
2023-05-21T06:42:54.149Z,8.6469
2023-05-21T06:43:56.188Z,9.9146
2023-05-21T06:44:58.239Z,10.3134
2023-05-21T06:46:00.298Z,7.4134
2023-05-21T06:47:02.305Z,8.6900
2023-05-21T06:48:04.401Z,10.2903
2023-05-21T06:49:06.426Z,11.1076
2023-05-21T06:50:08.461Z,8.8906
2023-05-21T06:51:10.526Z,8.5910
2023-05-21T06:52:12.646Z,10.2805
2023-05-21T06:53:14.580Z,9.0523
2023-05-21T06:54:16.677Z,8.1939
2023-05-21T06:55:18.701Z,10.6423
2023-05-21T06:56:20.735Z,9.4789
2023-05-21T06:57:22.774Z,10.0292
2023-05-21T06:58:24.805Z,8.6883
2023-05-21T06:59:26.869Z,8.4385
2023-05-21T07:00:28.918Z,9.0266
2023-05-21T07:01:31.024Z,10.9532
2023-05-21T07:02:33.181Z,10.1058
2023-05-21T07:03:35.090Z,9.9937
2023-05-21T07:04:37.103Z,10.4014
2023-05-21T07:05:39.643Z,10.4927
2023-05-21T07:06:41.181Z,8.8025
2023-05-21T07:07:43.224Z,12.1852
2023-05-21T07:08:45.295Z,8.7147
2023-05-21T07:09:47.344Z,11.7318
2023-05-21T07:10:49.388Z,11.1884
2023-05-21T07:11:59.002Z,10.3657
2023-05-21T07:12:54.019Z,9.4204
2023-05-21T07:13:55.588Z,10.7863
2023-05-21T07:14:59.371Z,10.0098
2023-05-21T07:15:59.599Z,10.1287
2023-05-21T07:17:01.744Z,10.3203
2023-05-21T07:18:04.519Z,10.3211
2023-05-21T07:19:05.913Z,10.0544
2023-05-21T07:20:07.769Z,9.5116
2023-05-21T07:21:09.822Z,8.1005
2023-05-21T07:22:11.906Z,10.2091
2023-05-21T07:23:13.930Z,10.9850
2023-05-21T07:24:15.982Z,9.8358
2023-05-21T07:25:18.047Z,9.3480
2023-05-21T07:26:20.045Z,9.7432
2023-05-21T07:27:25.738Z,11.3470
2023-05-21T07:28:24.174Z,10.6159
2023-05-21T07:29:26.224Z,12.2463
2023-05-21T07:30:28.252Z,13.9663
2023-05-21T07:31:30.371Z,12.1466
2023-05-21T07:32:32.357Z,12.3864
2023-05-21T07:33:34.408Z,10.9468
2023-05-21T07:34:36.444Z,12.5287
2023-05-21T07:35:38.602Z,11.4150
2023-05-21T07:36:40.567Z,12.0660
2023-05-21T07:37:42.578Z,10.2708
2023-05-21T07:38:44.620Z,11.7321
2023-05-21T07:39:46.666Z,12.2343
2023-05-21T07:40:48.707Z,14.1654
2023-05-21T07:41:50.780Z,13.3509
2023-05-21T07:42:52.836Z,8.8585
2023-05-21T07:43:54.868Z,11.8430
2023-05-21T07:44:56.918Z,11.9005
2023-05-21T07:45:58.983Z,12.6345
2023-05-21T07:47:01.011Z,11.5889
2023-05-21T07:48:03.138Z,11.3258
2023-05-21T07:49:05.120Z,12.8155
2023-05-21T07:50:07.134Z,13.3484
2023-05-21T07:51:09.210Z,12.0801
2023-05-21T07:52:11.251Z,10.9030
2023-05-21T07:53:13.336Z,12.6094
2023-05-21T07:54:15.404Z,14.7323
2023-05-21T07:55:18.034Z,13.2004
2023-05-21T07:56:19.410Z,14.6519
2023-05-21T07:57:21.500Z,12.8802
2023-05-21T07:58:23.517Z,11.5856
2023-05-21T07:59:26.586Z,12.6010
2023-05-21T08:00:27.596Z,13.4553
2023-05-21T08:01:29.662Z,13.0635
2023-05-21T08:02:31.792Z,13.3581
2023-05-21T08:03:33.920Z,12.4935
2023-05-21T08:04:37.478Z,12.8340
2023-05-21T08:05:38.147Z,13.6685
2023-05-21T08:06:40.228Z,14.4145
2023-05-21T08:07:41.918Z,13.7800
2023-05-21T08:08:44.000Z,15.0734
2023-05-21T08:09:46.052Z,14.0158
2023-05-21T08:10:48.089Z,14.7724
2023-05-21T08:11:50.222Z,12.3234
2023-05-21T08:12:52.194Z,15.2877
2023-05-21T08:13:54.250Z,14.3129
2023-05-21T08:14:56.261Z,15.7342
2023-05-21T08:15:58.339Z,15.2809
2023-05-21T08:17:00.381Z,14.1605
2023-05-21T08:18:02.535Z,14.3097
2023-05-21T08:19:04.502Z,14.7963
2023-05-21T08:20:06.512Z,12.3119
2023-05-21T08:21:08.579Z,14.6005
2023-05-21T08:22:10.655Z,12.6639
2023-05-21T08:23:12.721Z,13.7712
2023-05-21T08:24:14.819Z,14.0560
2023-05-21T08:25:16.734Z,14.9948
2023-05-21T08:26:18.821Z,12.7134
2023-05-21T08:27:20.830Z,15.9585
2023-05-21T08:28:22.900Z,15.4457
2023-05-21T08:29:24.924Z,16.3774
2023-05-21T08:30:27.146Z,16.1784
2023-05-21T08:31:29.204Z,15.3681
2023-05-21T08:32:31.124Z,16.1388
2023-05-21T08:33:33.138Z,13.6246
2023-05-21T08:34:36.685Z,16.0381
2023-05-21T08:35:37.382Z,16.1958
2023-05-21T08:36:39.359Z,13.2857
2023-05-21T08:37:41.339Z,14.9853
2023-05-21T08:38:43.362Z,14.2764
2023-05-21T08:39:45.506Z,13.3489
2023-05-21T08:40:47.456Z,14.5713
2023-05-21T08:41:49.770Z,14.2569
2023-05-21T08:42:51.594Z,16.5375
2023-05-21T08:43:54.952Z,14.0678
2023-05-21T08:44:55.727Z,13.7756
2023-05-21T08:45:57.711Z,13.8459
2023-05-21T08:46:59.759Z,15.4212
2023-05-21T08:48:01.835Z,14.7865
2023-05-21T08:49:03.868Z,13.6971
2023-05-21T08:50:05.871Z,14.1720
2023-05-21T08:51:07.937Z,15.3100
2023-05-21T08:52:09.985Z,12.7662
2023-05-21T08:53:23.417Z,13.8339
2023-05-21T08:54:14.097Z,14.1141
2023-05-21T08:55:16.122Z,14.2433
2023-05-21T08:56:18.285Z,15.1232
2023-05-21T08:57:20.256Z,13.9867
2023-05-21T08:58:22.285Z,14.3966
2023-05-21T08:59:24.342Z,14.0360
2023-05-21T09:00:26.373Z,15.1215
2023-05-21T09:01:28.498Z,15.8448
2023-05-21T09:02:30.535Z,16.4795
2023-05-21T09:03:32.579Z,14.8369
2023-05-21T09:04:34.739Z,14.5130
2023-05-21T09:05:36.797Z,13.9555
2023-05-21T09:06:38.741Z,14.8718
2023-05-21T09:07:40.745Z,15.8536
2023-05-21T09:08:42.780Z,16.8747
2023-05-21T09:09:44.823Z,14.6760
2023-05-21T09:10:46.904Z,15.5532
2023-05-21T09:11:48.927Z,16.7025
2023-05-21T09:12:52.019Z,15.6496
2023-05-21T09:13:53.032Z,17.5518
2023-05-21T09:14:55.044Z,14.9451
2023-05-21T09:15:57.099Z,14.5515
2023-05-21T09:16:59.428Z,16.1748
2023-05-21T09:18:01.237Z,15.8881
2023-05-21T09:19:04.603Z,15.6490
2023-05-21T09:20:05.350Z,14.4970
2023-05-21T09:21:07.377Z,13.9112
2023-05-21T09:22:09.415Z,17.2805
2023-05-21T09:23:11.535Z,13.9084
2023-05-21T09:24:13.518Z,16.2774
2023-05-21T09:25:15.675Z,14.4568
2023-05-21T09:26:17.614Z,14.8298
2023-05-21T09:27:19.668Z,15.4199
2023-05-21T09:28:21.756Z,15.3394
2023-05-21T09:29:23.737Z,14.3187
2023-05-21T09:30:28.814Z,13.4369
2023-05-21T09:31:27.902Z,15.3314
2023-05-21T09:32:29.964Z,15.8700
2023-05-21T09:33:32.010Z,16.0587
2023-05-21T09:34:34.060Z,16.7037
2023-05-21T09:35:37.503Z,14.4795
2023-05-21T09:36:38.192Z,14.9911
2023-05-21T09:37:40.231Z,13.4788
2023-05-21T09:38:42.283Z,13.4945
2023-05-21T09:39:44.303Z,14.5138
2023-05-21T09:40:46.396Z,13.9231
2023-05-21T09:41:48.417Z,14.3577
2023-05-21T09:42:50.488Z,14.5834
2023-05-21T09:43:52.499Z,13.9119
2023-05-21T09:44:54.536Z,11.9304
2023-05-21T09:45:57.750Z,11.7883
2023-05-21T09:46:58.843Z,13.3392
2023-05-21T09:48:00.802Z,13.9187
2023-05-21T09:49:02.746Z,14.8566
2023-05-21T09:50:04.821Z,14.5069
2023-05-21T09:51:06.816Z,12.8595
2023-05-21T09:52:08.870Z,13.6998
2023-05-21T09:53:10.968Z,12.9765
2023-05-21T09:54:12.986Z,13.6805
2023-05-21T09:55:15.019Z,13.3418
2023-05-21T09:56:17.105Z,13.8803
2023-05-21T09:57:19.131Z,13.9973
2023-05-21T09:58:21.212Z,11.7021
2023-05-21T09:59:23.799Z,13.2724
2023-05-21T10:00:25.257Z,14.5418
2023-05-21T10:01:27.374Z,13.8667
2023-05-21T10:02:29.428Z,14.2678
2023-05-21T10:03:31.434Z,13.7135
2023-05-21T10:04:33.469Z,16.2141
2023-05-21T10:05:35.521Z,14.9915
2023-05-21T10:06:37.566Z,13.7125
2023-05-21T10:07:39.595Z,15.7787
2023-05-21T10:08:41.655Z,16.7585
2023-05-21T10:09:43.714Z,13.7177
2023-05-21T10:10:45.736Z,14.9146
2023-05-21T10:11:47.801Z,15.0222
2023-05-21T10:12:49.879Z,14.6580
2023-05-21T10:13:51.882Z,16.4328
2023-05-21T10:14:53.890Z,15.6004
2023-05-21T10:15:55.950Z,15.0996
2023-05-21T10:16:58.083Z,15.1650
2023-05-21T10:18:00.080Z,16.0551
2023-05-21T10:19:02.140Z,15.6035
2023-05-21T10:20:04.135Z,13.9846
2023-05-21T10:21:06.161Z,15.9688
2023-05-21T10:22:08.209Z,14.6880
2023-05-21T10:23:10.259Z,15.6506
2023-05-21T10:24:12.312Z,15.3662
2023-05-21T10:25:14.380Z,15.0338
2023-05-21T10:26:16.394Z,15.3764
2023-05-21T10:27:18.426Z,14.7515
2023-05-21T10:28:20.518Z,14.3708
2023-05-21T10:29:22.529Z,13.5119
2023-05-21T10:30:24.559Z,15.4134
2023-05-21T10:31:26.644Z,14.4843
2023-05-21T10:32:28.966Z,14.4937
2023-05-21T10:33:30.787Z,17.8248
2023-05-21T10:34:32.738Z,17.0796
2023-05-21T10:36:36.858Z,12.3200
2023-05-21T10:37:38.905Z,13.9702
2023-05-21T10:38:41.180Z,15.0706
2023-05-21T10:39:42.973Z,14.3648
2023-05-21T10:40:45.013Z,14.9615
2023-05-21T10:41:47.163Z,14.8542
2023-05-21T10:42:49.135Z,14.8751
2023-05-21T10:43:51.202Z,14.2623
2023-05-21T10:44:53.212Z,13.2658
2023-05-21T10:45:55.361Z,15.2200
2023-05-21T10:46:57.275Z,12.4578
2023-05-21T10:47:59.318Z,12.7709
2023-05-21T10:49:01.367Z,13.7231
2023-05-21T10:50:03.415Z,12.5538
2023-05-21T10:51:05.507Z,15.0261
2023-05-21T10:52:07.508Z,14.9076
2023-05-21T10:53:10.925Z,14.9214
2023-05-21T10:54:11.571Z,15.2919
2023-05-21T10:55:13.825Z,16.0260
2023-05-21T10:56:15.729Z,14.3204
2023-05-21T10:57:17.731Z,14.5845
2023-05-21T10:58:19.748Z,14.0925
2023-05-21T10:59:21.819Z,14.3537
2023-05-21T11:00:23.853Z,15.1906
2023-05-21T11:01:26.042Z,12.7928
2023-05-21T11:02:28.003Z,14.7209
2023-05-21T11:03:30.180Z,14.7719
2023-05-21T11:04:32.023Z,15.1185
2023-05-21T11:05:34.079Z,14.5188
2023-05-21T11:06:36.128Z,14.1353
2023-05-21T11:07:38.174Z,14.8113
2023-05-21T11:08:40.217Z,13.5080
2023-05-21T11:09:42.273Z,14.5804
2023-05-21T11:10:44.288Z,13.2084
2023-05-21T11:11:46.475Z,13.2275
2023-05-21T11:12:48.382Z,13.3015
2023-05-21T11:13:50.439Z,12.8182
2023-05-21T11:14:52.445Z,16.5293
2023-05-21T11:15:54.568Z,15.1305
2023-05-21T11:16:56.578Z,16.9233
2023-05-21T11:17:58.676Z,15.2390
2023-05-21T11:19:00.902Z,13.7068
2023-05-21T11:20:02.682Z,13.1216
2023-05-21T11:21:04.747Z,12.4735
2023-05-21T11:22:06.864Z,11.8870
2023-05-21T11:23:08.824Z,14.5219
2023-05-21T11:24:10.869Z,13.5018
2023-05-21T11:25:12.909Z,12.5184
2023-05-21T11:26:14.943Z,13.6020
2023-05-21T11:27:17.118Z,14.5026
2023-05-21T11:28:19.056Z,14.6049
2023-05-21T11:29:21.113Z,14.3879
2023-05-21T11:30:23.130Z,13.8797
2023-05-21T11:31:25.219Z,12.9048
2023-05-21T11:32:27.218Z,12.7046
2023-05-21T11:33:29.375Z,13.2936
2023-05-21T11:34:31.296Z,13.8134
2023-05-21T11:35:33.346Z,13.4488
2023-05-21T11:36:36.084Z,11.7532
2023-05-21T11:37:37.404Z,14.7444
2023-05-21T11:38:39.457Z,13.9562
2023-05-21T11:39:41.600Z,13.6064
2023-05-21T11:40:43.572Z,12.3980
2023-05-21T11:41:45.610Z,13.5579
2023-05-21T11:42:47.636Z,12.5475
2023-05-21T11:43:49.681Z,12.0837
2023-05-21T11:44:51.716Z,10.4101
2023-05-21T11:45:53.852Z,10.6287
2023-05-21T11:46:55.952Z,10.4758
2023-05-21T11:47:57.917Z,11.7319
2023-05-21T11:48:59.915Z,11.4564
2023-05-21T11:50:01.953Z,10.7523
2023-05-21T11:51:04.012Z,11.9974
2023-05-21T11:52:06.064Z,10.1327
2023-05-21T11:53:08.127Z,10.8520
2023-05-21T11:54:10.218Z,11.5803
2023-05-21T11:55:12.462Z,12.4263
2023-05-21T11:56:14.235Z,11.9821
2023-05-21T11:57:16.322Z,10.2542
2023-05-21T11:58:18.354Z,12.1587
2023-05-21T11:59:20.942Z,10.8494
2023-05-21T12:00:22.484Z,10.9788
2023-05-21T12:01:24.455Z,10.0170
2023-05-21T12:02:26.555Z,10.7776
2023-05-21T12:03:28.595Z,10.2945
2023-05-21T12:04:30.575Z,10.6970
2023-05-21T12:05:32.698Z,11.5164
2023-05-21T12:06:34.695Z,9.7428
2023-05-21T12:07:36.755Z,9.3750
2023-05-21T12:08:38.753Z,8.6021
2023-05-21T12:09:40.895Z,7.8477
2023-05-21T12:10:44.427Z,8.5879
2023-05-21T12:11:44.907Z,8.8985
2023-05-21T12:12:55.610Z,9.6700
2023-05-21T12:13:49.010Z,9.9252
2023-05-21T12:14:51.017Z,10.1430
2023-05-21T12:15:53.069Z,11.4543
2023-05-21T12:16:55.163Z,11.0144
2023-05-21T12:17:57.396Z,10.3936
2023-05-21T12:18:59.250Z,10.8678
2023-05-21T12:20:01.290Z,10.5160
2023-05-21T12:21:03.349Z,11.2639
2023-05-21T12:22:05.368Z,10.3204
2023-05-21T12:23:07.418Z,12.2025
2023-05-21T12:24:09.547Z,11.7588
2023-05-21T12:25:11.535Z,11.4970
2023-05-21T12:26:13.586Z,12.7068
2023-05-21T12:27:15.735Z,11.5225
2023-05-21T12:28:17.687Z,10.5823
2023-05-21T12:29:19.702Z,10.8335
2023-05-21T12:30:21.802Z,11.3134
2023-05-21T12:31:23.846Z,12.6538
2023-05-21T12:32:25.918Z,11.8883
2023-05-21T12:33:27.894Z,10.8249
2023-05-21T12:34:29.943Z,12.4283
2023-05-21T12:35:32.082Z,12.7368
2023-05-21T12:36:34.071Z,12.3078
2023-05-21T12:37:36.111Z,11.2097
2023-05-21T12:38:38.126Z,12.9666
2023-05-21T12:39:40.175Z,11.5226
2023-05-21T12:40:42.234Z,12.7446
2023-05-21T12:41:44.281Z,11.4501
2023-05-21T12:42:46.325Z,12.1273
2023-05-21T12:43:48.371Z,10.5328
2023-05-21T12:44:50.404Z,13.2657
2023-05-21T12:45:52.503Z,12.2642
2023-05-21T12:46:54.513Z,11.2668
2023-05-21T12:47:56.753Z,10.0516
2023-05-21T12:48:58.589Z,12.4570
2023-05-21T12:50:00.641Z,11.5264
2023-05-21T12:51:02.704Z,11.3877
2023-05-21T12:52:04.761Z,10.9923
2023-05-21T12:53:06.830Z,11.5618
2023-05-21T12:54:08.832Z,11.9575
2023-05-21T12:55:10.895Z,14.0369
2023-05-21T12:56:12.917Z,12.3143
2023-05-21T12:57:14.980Z,13.4785
2023-05-21T12:58:17.002Z,11.0996
2023-05-21T12:59:19.055Z,11.9556
2023-05-21T13:00:21.107Z,12.8252
2023-05-21T13:01:23.167Z,12.3241
2023-05-21T13:02:25.243Z,12.4312
2023-05-21T13:03:27.248Z,14.1794
2023-05-21T13:04:29.308Z,13.6025
2023-05-21T13:05:31.327Z,12.2538
2023-05-21T13:06:33.388Z,11.6883
2023-05-21T13:07:35.417Z,11.8267
2023-05-21T13:08:37.489Z,12.4425
2023-05-21T13:09:39.513Z,11.5427
2023-05-21T13:10:41.565Z,11.9545
2023-05-21T13:11:43.658Z,12.2052
2023-05-21T13:12:45.700Z,11.5714
2023-05-21T13:13:47.727Z,11.6992
2023-05-21T13:14:49.773Z,11.8377
2023-05-21T13:15:51.802Z,11.7633
2023-05-21T13:16:53.869Z,11.7733
2023-05-21T13:17:56.948Z,12.1373
2023-05-21T13:18:58.031Z,11.1184
2023-05-21T13:20:00.005Z,12.4697
2023-05-21T13:21:02.021Z,13.2190
2023-05-21T13:22:04.097Z,13.0596
2023-05-21T13:23:07.263Z,13.2252
2023-05-21T13:24:08.170Z,11.9191
2023-05-21T13:25:10.235Z,10.6317
2023-05-21T13:26:12.283Z,13.2474
2023-05-21T13:27:14.330Z,12.2167
2023-05-21T13:28:16.359Z,11.7306
2023-05-21T13:29:18.437Z,11.4846
2023-05-21T13:30:20.486Z,11.9811
2023-05-21T13:31:22.492Z,10.5791
2023-05-21T13:32:24.622Z,11.4518
2023-05-21T13:33:26.801Z,12.1439
2023-05-21T13:34:28.637Z,10.3361
2023-05-21T13:35:31.177Z,12.6545
2023-05-21T13:36:32.725Z,12.6530
2023-05-21T13:37:34.765Z,12.3705
2023-05-21T13:38:36.823Z,12.4660
2023-05-21T13:39:38.897Z,13.1235
2023-05-21T13:40:41.102Z,10.7952
2023-05-21T13:41:43.044Z,12.7192
2023-05-21T13:42:45.200Z,12.0077
2023-05-21T13:43:47.117Z,11.0193
2023-05-21T13:44:49.194Z,11.1471
2023-05-21T13:45:51.228Z,11.4075
2023-05-21T13:46:53.353Z,9.8057
2023-05-21T13:47:55.363Z,10.8520
2023-05-21T13:48:57.348Z,12.0872
2023-05-21T13:49:59.412Z,11.0355
2023-05-21T13:51:01.446Z,9.8040
2023-05-21T13:52:03.579Z,10.8901
2023-05-21T13:53:05.485Z,10.2360
2023-05-21T13:54:07.544Z,10.1028
2023-05-21T13:55:09.574Z,10.8654
2023-05-21T13:56:11.637Z,11.6695
2023-05-21T13:57:13.694Z,8.7882
2023-05-21T13:58:15.746Z,9.5676
2023-05-21T13:59:17.763Z,9.7670
2023-05-21T14:00:19.831Z,11.3495
2023-05-21T14:01:21.926Z,9.7159
2023-05-21T14:02:24.042Z,9.6078
2023-05-21T14:03:26.010Z,9.0987
2023-05-21T14:04:28.007Z,8.8004
2023-05-21T14:05:30.021Z,9.5460
2023-05-21T14:06:32.101Z,9.8882
2023-05-21T14:07:34.170Z,9.1391
2023-05-21T14:08:36.214Z,10.2649
2023-05-21T14:09:38.240Z,9.1940
2023-05-21T14:10:40.308Z,7.4015
2023-05-21T14:11:42.404Z,9.2971
2023-05-21T14:12:44.343Z,9.2679
2023-05-21T14:13:46.397Z,10.3463
2023-05-21T14:14:48.498Z,9.0244
2023-05-21T14:15:50.524Z,8.2645
2023-05-21T14:16:52.873Z,9.1976
2023-05-21T14:17:54.782Z,8.5881
2023-05-21T14:18:56.687Z,10.3018
2023-05-21T14:19:58.747Z,10.7639
2023-05-21T14:21:00.764Z,9.4873
2023-05-21T14:22:02.781Z,10.7726
2023-05-21T14:23:04.832Z,9.0480
2023-05-21T14:24:07.016Z,10.9687
2023-05-21T14:25:08.968Z,11.4722
2023-05-21T14:26:11.011Z,7.2014
2023-05-21T14:27:15.273Z,8.9577
2023-05-21T14:28:15.138Z,10.4243
2023-05-21T14:29:17.054Z,8.7976
2023-05-21T14:30:19.116Z,8.4591
2023-05-21T14:31:21.154Z,8.6718
2023-05-21T14:32:23.449Z,9.2697
2023-05-21T14:33:25.270Z,9.0308
2023-05-21T14:34:27.290Z,8.2471
2023-05-21T14:35:29.396Z,8.6448
2023-05-21T14:36:31.543Z,8.6799
2023-05-21T14:37:33.474Z,8.8966
2023-05-21T14:38:35.448Z,7.7462
2023-05-21T14:39:37.507Z,8.0097
2023-05-21T14:40:39.636Z,8.0153
2023-05-21T14:41:41.627Z,7.1571
2023-05-21T14:42:43.681Z,7.4064
2023-05-21T14:43:45.685Z,7.3954
2023-05-21T14:44:47.751Z,7.1731
2023-05-21T14:45:49.786Z,7.3747
2023-05-21T14:46:51.852Z,6.7114
2023-05-21T14:47:53.940Z,7.4307
2023-05-21T14:48:55.912Z,6.9089
2023-05-21T14:49:58.074Z,7.1157
2023-05-21T14:51:00.072Z,6.6085
2023-05-21T14:52:02.050Z,6.8705
2023-05-21T14:53:04.146Z,7.4310
2023-05-21T14:54:06.129Z,5.5044
2023-05-21T14:55:08.152Z,5.7487
2023-05-21T14:56:10.259Z,5.4920
2023-05-21T14:57:12.355Z,5.3056
2023-05-21T14:58:14.773Z,5.5849
2023-05-21T14:59:16.358Z,4.9835
2023-05-21T15:00:18.420Z,5.2057
2023-05-21T15:01:20.480Z,7.1889
2023-05-21T15:02:22.559Z,7.2331
2023-05-21T15:03:24.710Z,7.3512
2023-05-21T15:04:26.686Z,8.9674
2023-05-21T15:05:28.653Z,7.2912
2023-05-21T15:06:30.696Z,7.6769
2023-05-21T15:07:32.712Z,7.7682
2023-05-21T15:08:34.850Z,6.3152
2023-05-21T15:09:36.817Z,6.4903
2023-05-21T15:10:38.911Z,6.4744
2023-05-21T15:11:40.915Z,6.8393
2023-05-21T15:12:43.032Z,9.5733
2023-05-21T15:13:44.994Z,7.9394
2023-05-21T15:14:47.021Z,7.8084
2023-05-21T15:15:49.114Z,7.5366
2023-05-21T15:16:51.249Z,7.4648
2023-05-21T15:17:53.211Z,8.9043
2023-05-21T15:18:55.238Z,8.3137
2023-05-21T15:19:57.295Z,6.8654
2023-05-21T15:20:59.339Z,6.5297
2023-05-21T15:22:01.405Z,7.3825
2023-05-21T15:24:05.452Z,6.4966
2023-05-21T15:25:07.540Z,5.3259
2023-05-21T15:26:09.554Z,7.8911
2023-05-21T15:27:11.615Z,5.9969
2023-05-21T15:28:13.665Z,6.6783
2023-05-21T15:29:15.708Z,6.6968
2023-05-21T15:30:17.745Z,6.4974
2023-05-21T15:31:19.789Z,7.0156
2023-05-21T15:32:21.920Z,6.5047
2023-05-21T15:33:23.896Z,7.2742
2023-05-21T15:34:25.958Z,7.8737
2023-05-21T15:35:28.148Z,9.0443
2023-05-21T15:36:30.007Z,6.5352
2023-05-21T15:37:32.118Z,7.2761
2023-05-21T15:38:34.133Z,7.9039
2023-05-21T15:39:36.173Z,7.5438
2023-05-21T15:40:38.233Z,7.8208
2023-05-21T15:41:40.280Z,7.2868
2023-05-21T15:42:42.288Z,7.0156
2023-05-21T15:43:44.328Z,6.5358
2023-05-21T15:44:46.449Z,6.5363
2023-05-21T15:45:48.448Z,7.9449
2023-05-21T15:46:50.524Z,8.0397
2023-05-21T15:47:52.669Z,8.4957
2023-05-21T15:48:54.580Z,7.5591
2023-05-21T15:49:56.639Z,10.3564
2023-05-21T15:50:58.655Z,9.1218
2023-05-21T15:52:00.693Z,8.7971
2023-05-21T15:53:02.758Z,7.4943
2023-05-21T15:54:04.785Z,7.1698
2023-05-21T15:55:06.832Z,6.6243
2023-05-21T15:56:08.871Z,6.3055
2023-05-21T15:57:10.951Z,7.3160
2023-05-21T15:58:13.003Z,7.0856
2023-05-21T15:59:15.042Z,7.0908
